Time;durP1;ratioP1;P1;durP2;ratioP2;P2;SDS_P1;SDS_P2;PMS_P1;PMS_P2;Temp;Humidity;BMP_temperature;BMP_pressure;BME280_temperature;BME280_humidity;BME280_pressure;Samples;Min_cycle;Max_cycle;Signal;HPM_P1;HPM_P2
2022/10/15 00:01:05;;;;;;;6.78;2.17;;;;;;;4.29;100.00;99524.19;4949857;29;20415;-87
2022/10/15 00:03:34;;;;;;;4.70;2.10;;;;;;;4.31;100.00;99509.44;4962406;28;20086;-88
2022/10/15 00:06:09;;;;;;;7.03;2.05;;;;;;;4.32;100.00;99513.69;4956871;28;20401;-88
2022/10/15 00:08:37;;;;;;;4.68;1.73;;;;;;;4.56;100.00;99548.38;4974209;28;20069;-88
2022/10/15 00:11:07;;;;;;;5.45;1.88;;;;;;;4.56;100.00;99549.22;4973743;28;20485;-88
2022/10/15 00:13:34;;;;;;;6.00;1.80;;;;;;;4.63;100.00;99528.28;4973333;28;20051;-87
2022/10/15 00:16:02;;;;;;;5.68;2.25;;;;;;;4.58;100.00;99549.16;4970404;28;20059;-87
2022/10/15 00:18:29;;;;;;;6.22;2.03;;;;;;;4.51;100.00;99539.91;4975309;28;20055;-87
2022/10/15 00:20:56;;;;;;;5.55;1.80;;;;;;;4.62;100.00;99543.00;4973496;28;20058;-87
2022/10/15 00:23:22;;;;;;;6.50;2.55;;;;;;;4.49;100.00;99514.03;4974453;28;20097;-87
2022/10/15 00:25:49;;;;;;;7.03;1.95;;;;;;;4.46;100.00;99523.63;4972051;28;21201;-87
2022/10/15 00:28:16;;;;;;;4.93;2.00;;;;;;;4.78;100.00;99568.44;4956998;28;20544;-87
2022/10/15 00:30:42;;;;;;;5.15;1.65;;;;;;;4.71;100.00;99541.84;4956569;28;20129;-86
2022/10/15 00:33:09;;;;;;;5.47;1.58;;;;;;;4.83;100.00;99550.97;4969636;28;20054;-87
2022/10/15 00:35:36;;;;;;;4.60;1.63;;;;;;;4.63;100.00;99504.97;4973586;28;20058;-87
2022/10/15 00:38:02;;;;;;;3.50;1.38;;;;;;;4.68;100.00;99503.06;4972073;28;20059;-87
2022/10/15 00:40:29;;;;;;;4.60;1.50;;;;;;;4.50;100.00;99471.66;4972694;28;20490;-86
2022/10/15 00:42:56;;;;;;;4.28;1.75;;;;;;;4.89;100.00;99520.50;4973304;28;20436;-87
2022/10/15 00:45:23;;;;;;;4.93;1.52;;;;;;;4.86;100.00;99515.41;4973290;28;20449;-87
2022/10/15 00:47:52;;;;;;;3.58;1.30;;;;;;;4.80;100.00;99500.06;4973086;28;20046;-87
2022/10/15 00:50:24;;;;;;;3.80;1.15;;;;;;;4.90;100.00;99506.63;4972493;28;20494;-87
2022/10/15 00:53:07;;;;;;;3.15;1.20;;;;;;;4.89;100.00;99510.13;4957245;28;20526;-88
2022/10/15 00:55:39;;;;;;;4.82;1.30;;;;;;;4.78;100.00;99488.91;4972396;28;20486;-87
2022/10/15 00:58:10;;;;;;;4.40;1.40;;;;;;;4.95;100.00;99501.28;4955773;28;20046;-88
2022/10/15 01:00:38;;;;;;;3.45;1.33;;;;;;;4.85;100.00;99480.00;4973035;28;20054;-87
2022/10/15 01:03:05;;;;;;;2.08;1.00;;;;;;;4.97;100.00;99473.53;4972406;28;20062;-88
2022/10/15 01:05:33;;;;;;;4.70;1.33;;;;;;;4.98;100.00;99440.69;4957000;28;20070;-87
2022/10/15 01:08:00;;;;;;;4.38;1.30;;;;;;;5.24;100.00;99483.84;4971887;28;20054;-87
2022/10/15 01:10:36;;;;;;;4.40;1.33;;;;;;;5.40;100.00;99491.91;4972634;28;20050;-87
2022/10/15 01:13:08;;;;;;;5.30;1.13;;;;;;;5.47;100.00;99481.28;4970177;28;20091;-87
2022/10/15 01:16:03;;;;;;;2.30;1.10;;;;;;;5.57;100.00;99473.97;4956817;28;20453;-87
2022/10/15 01:18:43;;;;;;;4.38;1.33;;;;;;;5.59;100.00;99463.53;4972659;28;20054;-87
2022/10/15 01:21:24;;;;;;;5.32;1.45;;;;;;;5.61;100.00;99467.78;4973497;28;20109;-87
2022/10/15 01:24:13;;;;;;;5.22;2.10;;;;;;;5.64;100.00;99470.25;4972656;28;20085;-88
2022/10/15 01:26:48;;;;;;;4.68;1.77;;;;;;;5.75;100.00;99453.44;4971729;28;20050;-88
2022/10/15 01:29:45;;;;;;;5.03;1.50;;;;;;;5.69;100.00;99441.53;4956646;28;20105;-87
2022/10/15 01:32:28;;;;;;;7.47;1.33;;;;;;;5.74;100.00;99446.53;4970189;28;20102;-87
2022/10/15 01:35:07;;;;;;;5.32;1.30;;;;;;;5.70;100.00;99425.88;4972318;28;20043;-87
2022/10/15 01:37:45;;;;;;;5.20;1.30;;;;;;;5.87;100.00;99425.22;4970572;28;20105;-88
2022/10/15 01:40:21;;;;;;;3.95;1.50;;;;;;;5.86;100.00;99414.88;4971425;28;20050;-87
2022/10/15 01:43:00;;;;;;;3.00;1.17;;;;;;;5.81;100.00;99398.66;4953792;28;20085;-88
2022/10/15 01:45:36;;;;;;;5.07;1.35;;;;;;;5.92;100.00;99409.47;4955597;28;20102;-87
2022/10/15 01:48:07;;;;;;;3.47;1.33;;;;;;;5.78;100.00;99406.56;4955487;28;20050;-87
2022/10/15 01:50:38;;;;;;;3.15;1.10;;;;;;;5.67;100.00;99384.44;4956446;28;20055;-87
2022/10/15 01:53:08;;;;;;;4.53;1.52;;;;;;;5.57;100.00;99370.13;4972893;28;20058;-87
2022/10/15 01:55:36;;;;;;;3.22;1.45;;;;;;;5.68;100.00;99382.69;4972994;28;20054;-87
2022/10/15 01:58:04;;;;;;;3.08;1.23;;;;;;;5.64;100.00;99371.56;4968907;28;20070;-87
2022/10/15 02:00:31;;;;;;;3.58;1.17;;;;;;;5.56;100.00;99358.06;4957169;28;20043;-87
2022/10/15 02:02:59;;;;;;;4.55;1.17;;;;;;;5.70;100.00;99366.16;4971852;28;20051;-87
2022/10/15 02:05:32;;;;;;;3.80;1.30;;;;;;;5.69;100.00;99369.66;4956020;28;20054;-87
2022/10/15 02:08:05;;;;;;;;;;;;;;;5.91;100.00;99381.78;4955741;28;20434;-87
2022/10/15 02:10:58;;;;;;;2.35;1.20;;;;;;;5.56;100.00;99326.91;4972047;28;19926;-87
2022/10/15 02:13:44;;;;;;;2.20;1.20;;;;;;;5.84;100.00;99375.13;4955507;28;20120;-87
2022/10/15 02:16:22;;;;;;;2.08;1.15;;;;;;;5.82;100.00;99370.00;4969479;28;20055;-87
2022/10/15 02:19:15;;;;;;;2.85;1.15;;;;;;;5.73;100.00;99349.59;4955698;28;20058;-87
2022/10/15 02:21:47;;;;;;;5.18;1.20;;;;;;;5.50;100.00;99303.78;4964800;28;20058;-87
2022/10/15 02:24:22;;;;;;;2.83;1.25;;;;;;;5.59;100.00;99313.78;4956157;28;20113;-87
2022/10/15 02:26:52;;;;;;;3.40;1.10;;;;;;;5.87;100.00;99354.25;4952315;28;20395;-87
2022/10/15 02:29:22;;;;;;;4.65;1.23;;;;;;;5.70;100.00;99322.00;4971216;28;20058;-87
2022/10/15 02:31:50;;;;;;;1.35;1.05;;;;;;;5.62;100.00;99305.03;4971259;28;20074;-87
2022/10/15 02:34:20;;;;;;;3.17;1.10;;;;;;;5.54;100.00;99275.94;4970796;28;20054;-87
2022/10/15 02:36:48;;;;;;;2.67;1.10;;;;;;;5.72;100.00;99293.38;4966973;28;20066;-87
2022/10/15 02:39:20;;;;;;;3.38;1.02;;;;;;;5.83;100.00;99309.34;4973088;28;20057;-87
2022/10/15 02:41:47;;;;;;;3.63;1.10;;;;;;;5.80;100.00;99291.28;4973142;28;20072;-87
2022/10/15 02:44:14;;;;;;;4.50;1.33;;;;;;;5.56;100.00;99251.63;4956701;28;20055;-87
2022/10/15 02:46:41;;;;;;;3.78;1.30;;;;;;;5.76;100.00;99286.31;4969795;28;20051;-87
2022/10/15 02:49:11;;;;;;;4.95;1.25;;;;;;;5.73;100.00;99268.25;4956069;28;20055;-87
2022/10/15 02:51:38;;;;;;;3.15;1.20;;;;;;;5.65;100.00;99259.03;4959598;28;20058;-87
2022/10/15 02:54:06;;;;;;;2.67;1.20;;;;;;;5.84;100.00;99272.09;4974488;28;20093;-87
2022/10/15 02:56:34;;;;;;;4.00;1.00;;;;;;;5.74;100.00;99241.34;4975319;28;20050;-87
2022/10/15 02:59:01;;;;;;;6.25;2.00;;;;;;;5.80;100.00;99241.09;4974544;28;20055;-87
2022/10/15 03:01:28;;;;;;;2.88;1.08;;;;;;;5.44;100.00;99179.44;4969359;28;20715;-87
2022/10/15 03:03:55;;;;;;;4.80;1.10;;;;;;;5.74;100.00;99205.84;4976409;28;20085;-87
2022/10/15 03:06:21;;;;;;;4.22;1.33;;;;;;;5.65;100.00;99195.88;4976481;28;20390;-87
2022/10/15 03:08:48;;;;;;;3.42;1.00;;;;;;;5.61;100.00;99174.38;4962009;28;20047;-88
2022/10/15 03:11:15;;;;;;;2.67;0.98;;;;;;;5.50;100.00;99173.97;4976074;28;20043;-87
2022/10/15 03:13:42;;;;;;;2.15;1.00;;;;;;;5.39;100.00;99166.63;4976883;28;20413;-87
2022/10/15 03:16:10;;;;;;;3.92;1.92;;;;;;;5.66;100.00;99175.00;4969815;28;20547;-87
2022/10/15 03:18:37;;;;;;;2.97;1.30;;;;;;;5.55;100.00;99160.81;4959529;28;20181;-87
2022/10/15 03:21:06;;;;;;;2.85;1.20;;;;;;;5.44;100.00;99114.53;4959340;28;20080;-87
2022/10/15 03:23:33;;;;;;;2.78;1.00;;;;;;;5.92;100.00;99188.63;4959396;28;20049;-87
2022/10/15 03:26:00;;;;;;;3.45;1.20;;;;;;;5.58;100.00;99119.09;4973959;28;20138;-87
2022/10/15 03:28:27;;;;;;;3.08;1.30;;;;;;;5.66;100.00;99132.63;4960321;28;20055;-87
2022/10/15 03:30:54;;;;;;;2.53;1.05;;;;;;;5.73;100.00;99107.22;4954731;28;20083;-88
2022/10/15 03:33:21;;;;;;;1.88;1.00;;;;;;;6.02;100.00;99139.72;4974395;28;20051;-87
2022/10/15 03:35:51;;;;;;;2.70;1.05;;;;;;;6.02;100.00;99144.94;4959008;28;20062;-87
2022/10/15 03:38:18;;;;;;;4.00;1.55;;;;;;;5.77;100.00;99116.56;4975162;28;20055;-87
2022/10/15 03:40:45;;;;;;;4.43;1.35;;;;;;;5.97;100.00;99128.72;4984315;28;20046;-87
2022/10/15 03:43:12;;;;;;;5.00;1.40;;;;;;;5.88;100.00;99124.75;4962413;28;20051;-87
2022/10/15 03:45:39;;;;;;;6.70;1.50;;;;;;;5.95;100.00;99143.47;4958266;28;20047;-88
2022/10/15 03:48:06;;;;;;;4.60;1.50;;;;;;;5.57;100.00;99081.94;4989556;28;20162;-87
2022/10/15 03:50:33;;;;;;;3.20;1.30;;;;;;;5.89;100.00;99111.66;4954850;28;20108;-88
2022/10/15 03:53:04;;;;;;;17.17;2.60;;;;;;;5.89;100.00;99110.84;4956547;29;20055;-87
2022/10/15 03:55:32;;;;;;;4.40;1.60;;;;;;;5.58;100.00;99044.69;4968444;28;20397;-88
2022/10/15 03:57:59;;;;;;;4.38;1.52;;;;;;;5.83;100.00;99062.59;4970905;28;20465;-88
2022/10/15 04:00:25;;;;;;;4.40;1.40;;;;;;;5.75;100.00;99054.31;4973814;28;20098;-87
2022/10/15 04:02:52;;;;;;;2.13;1.10;;;;;;;5.67;100.00;99041.66;4974245;28;20054;-87
2022/10/15 04:05:19;;;;;;;4.15;1.45;;;;;;;5.78;100.00;99040.34;4974547;28;20644;-87
2022/10/15 04:07:46;;;;;;;3.60;1.30;;;;;;;5.80;100.00;99047.16;4957824;28;20051;-88
2022/10/15 04:10:13;;;;;;;5.18;1.50;;;;;;;5.89;100.00;99044.13;4973297;28;20441;-87
2022/10/15 04:12:39;;;;;;;6.35;2.05;;;;;;;5.74;100.00;99041.38;4975136;28;20127;-86
2022/10/15 04:15:07;;;;;;;3.70;1.50;;;;;;;5.67;100.00;99028.69;4974007;28;20047;-88
2022/10/15 04:17:33;;;;;;;5.05;1.38;;;;;;;5.60;100.00;99005.66;4973793;28;20047;-87
2022/10/15 04:20:00;;;;;;;7.10;1.60;;;;;;;5.87;100.00;99032.13;4957626;28;20106;-87
2022/10/15 04:22:27;;;;;;;4.65;1.35;;;;;;;5.83;100.00;99020.22;4975635;28;20047;-88
2022/10/15 04:24:54;;;;;;;3.40;1.30;;;;;;;5.81;100.00;99011.66;4965565;28;20064;-88
2022/10/15 04:27:20;;;;;;;5.88;1.40;;;;;;;6.14;100.00;99019.66;4964501;28;20122;-88
2022/10/15 04:29:48;;;;;;;4.07;1.20;;;;;;;6.57;100.00;99024.56;4956423;28;20058;-88
2022/10/15 04:32:15;;;;;;;10.80;2.00;;;;;;;6.64;100.00;98990.41;4973216;28;20050;-88
2022/10/15 04:34:41;;;;;;;8.35;1.77;;;;;;;6.96;100.00;99010.53;4973342;28;20047;-88
2022/10/15 04:37:08;;;;;;;5.85;1.60;;;;;;;7.21;100.00;98995.34;4973063;28;20046;-88
2022/10/15 04:39:35;;;;;;;8.15;1.42;;;;;;;7.38;100.00;98984.06;4954231;28;20057;-88
2022/10/15 04:42:02;;;;;;;7.78;1.60;;;;;;;7.49;100.00;98967.00;4969336;28;20055;-87
2022/10/15 04:44:28;;;;;;;9.85;1.83;;;;;;;7.64;100.00;98942.75;4986981;28;20050;-87
2022/10/15 04:46:57;;;;;;;6.88;1.60;;;;;;;7.92;100.00;98967.31;4952972;28;20469;-88
2022/10/15 04:49:23;;;;;;;5.63;1.48;;;;;;;8.21;100.00;98983.09;4958250;28;20110;-88
2022/10/15 04:51:50;;;;;;;3.53;1.30;;;;;;;8.20;100.00;98963.16;4987569;28;20053;-88
2022/10/15 04:54:17;;;;;;;8.30;1.70;;;;;;;8.13;100.00;98962.69;4976057;28;20474;-87
2022/10/15 04:56:43;;;;;;;9.13;1.70;;;;;;;8.42;100.00;98989.75;4973473;28;20059;-88
2022/10/15 04:59:10;;;;;;;7.45;1.95;;;;;;;8.55;100.00;98990.75;4974272;28;20109;-87
2022/10/15 05:01:37;;;;;;;8.25;1.50;;;;;;;8.47;100.00;98955.59;4956602;28;20054;-88
2022/10/15 05:04:04;;;;;;;8.75;1.38;;;;;;;8.78;100.00;98975.50;4973117;28;20481;-88
2022/10/15 05:06:31;;;;;;;7.75;1.33;;;;;;;8.99;100.00;98981.25;4972915;28;20051;-88
2022/10/15 05:08:58;;;;;;;6.55;1.88;;;;;;;8.92;100.00;98959.03;4970883;28;20047;-88
2022/10/15 05:11:28;;;;;;;9.10;1.45;;;;;;;8.95;100.00;98955.44;4972028;28;20105;-88
2022/10/15 05:13:56;;;;;;;4.93;1.40;;;;;;;9.01;100.00;98961.13;4965520;28;20055;-88
2022/10/15 05:16:28;;;;;;;8.55;1.63;;;;;;;9.15;100.00;98968.13;4964142;28;20057;-88
2022/10/15 05:18:58;;;;;;;8.60;1.58;;;;;;;9.28;100.00;98957.78;4973272;28;20420;-88
2022/10/15 05:21:25;;;;;;;9.63;1.42;;;;;;;9.28;100.00;98935.13;4953955;28;20054;-88
2022/10/15 05:23:56;;;;;;;10.52;2.10;;;;;;;9.16;100.00;98914.97;4972099;28;20102;-88
2022/10/15 05:26:24;;;;;;;6.25;1.60;;;;;;;9.65;100.00;98935.47;4956427;28;20050;-88
2022/10/15 05:28:52;;;;;;;7.53;1.63;;;;;;;9.64;100.00;98912.88;4971312;28;20061;-88
2022/10/15 05:31:21;;;;;;;12.00;1.98;;;;;;;9.79;100.00;98931.13;4973219;28;20413;-88
2022/10/15 05:33:50;;;;;;;8.45;1.58;;;;;;;9.82;100.00;98921.31;4973985;28;20104;-88
2022/10/15 05:36:18;;;;;;;9.60;1.88;;;;;;;9.77;100.00;98910.31;4972221;28;20070;-88
2022/10/15 05:38:48;;;;;;;9.05;1.98;;;;;;;9.75;100.00;98885.22;4973226;28;20053;-87
2022/10/15 05:41:15;;;;;;;10.70;1.80;;;;;;;9.92;100.00;98886.78;4972243;28;20058;-88
2022/10/15 05:43:42;;;;;;;14.63;2.67;;;;;;;9.71;100.00;98875.91;4971160;28;20050;-87
2022/10/15 05:46:09;;;;;;;9.70;1.85;;;;;;;9.67;100.00;98854.38;4970094;28;20051;-87
2022/10/15 05:48:38;;;;;;;14.00;3.25;;;;;;;9.68;100.00;98856.88;4970621;28;20059;-88
2022/10/15 05:51:09;;;;;;;11.63;2.40;;;;;;;9.96;100.00;98867.31;4952699;28;20485;-88
2022/10/15 05:53:39;;;;;;;8.48;2.30;;;;;;;9.70;100.00;98843.69;4969674;28;20413;-88
2022/10/15 05:56:07;;;;;;;13.07;1.80;;;;;;;9.90;100.00;98839.81;4965755;28;20055;-88
2022/10/15 05:58:35;;;;;;;10.07;2.20;;;;;;;9.96;100.00;98846.41;4958556;28;20220;-87
2022/10/15 06:01:06;;;;;;;10.15;2.50;;;;;;;9.96;100.00;98838.56;4970907;28;20061;-87
2022/10/15 06:03:33;;;;;;;8.77;1.60;;;;;;;10.10;100.00;98832.44;4956306;28;20059;-87
2022/10/15 06:06:03;;;;;;;12.43;2.22;;;;;;;9.87;100.00;98827.75;4970542;28;20047;-87
2022/10/15 06:08:30;;;;;;;7.35;1.38;;;;;;;9.83;100.00;98786.25;4973289;28;20097;-88
2022/10/15 06:11:03;;;;;;;10.65;1.58;;;;;;;9.85;100.00;98794.84;4971540;28;20059;-88
2022/10/15 06:13:37;;;;;;;9.68;2.25;;;;;;;9.73;100.00;98785.19;4972527;28;20063;-88
2022/10/15 06:16:04;;;;;;;11.75;1.92;;;;;;;9.57;100.00;98770.50;4972361;28;20693;-87
2022/10/15 06:18:31;;;;;;;12.00;2.80;;;;;;;9.81;100.00;98782.88;4971826;28;20166;-88
2022/10/15 06:20:58;;;;;;;14.60;2.40;;;;;;;9.87;100.00;98769.44;4971982;28;20071;-88
2022/10/15 06:23:25;;;;;;;11.80;2.28;;;;;;;10.00;100.00;98757.19;4955565;28;20054;-88
2022/10/15 06:25:51;;;;;;;12.05;2.13;;;;;;;9.93;100.00;98744.66;4973164;28;20820;-89
2022/10/15 06:28:18;;;;;;;11.82;2.40;;;;;;;10.04;100.00;98744.78;4952888;28;20054;-88
2022/10/15 06:30:45;;;;;;;14.65;3.28;;;;;;;10.11;100.00;98732.97;4969131;28;20078;-88
2022/10/15 06:33:12;;;;;;;13.52;2.50;;;;;;;10.10;100.00;98739.13;4958114;28;20055;-89
2022/10/15 06:35:40;;;;;;;13.70;2.75;;;;;;;9.98;100.00;98719.03;4972998;28;20429;-88
2022/10/15 06:38:06;;;;;;;15.52;2.63;;;;;;;10.08;100.00;98710.47;4972140;28;20102;-90
2022/10/15 06:40:33;;;;;;;16.15;2.72;;;;;;;9.98;100.00;98677.22;4954403;28;20047;-88
2022/10/15 06:43:06;;;;;;;18.77;2.85;;;;;;;10.17;100.00;98709.00;4967757;28;20455;-88
2022/10/15 06:45:41;;;;;;;18.45;4.25;;;;;;;10.35;100.00;98696.47;4963115;28;20491;-88
2022/10/15 06:48:08;;;;;;;19.45;3.17;;;;;;;10.36;100.00;98689.47;4969594;28;20050;-88
2022/10/15 06:50:37;;;;;;;17.13;3.03;;;;;;;10.41;100.00;98664.66;4980211;28;20050;-86
2022/10/15 06:53:05;;;;;;;12.45;2.90;;;;;;;10.43;100.00;98667.19;4947964;28;20406;-89
2022/10/15 06:55:34;;;;;;;17.98;2.63;;;;;;;10.21;100.00;98668.63;4977075;28;20097;-88
2022/10/15 06:58:01;;;;;;;19.45;3.22;;;;;;;10.29;100.00;98649.81;4961944;28;20050;-89
2022/10/15 07:00:28;;;;;;;16.67;3.03;;;;;;;10.11;100.00;98643.22;4976452;28;20059;-89
2022/10/15 07:02:55;;;;;;;24.33;3.15;;;;;;;10.25;100.00;98637.84;4967889;28;20142;-89
2022/10/15 07:05:22;;;;;;;19.23;3.70;;;;;;;10.15;100.00;98631.63;4964281;28;20047;-90
2022/10/15 07:07:54;;;;;;;19.10;3.72;;;;;;;10.23;100.00;98651.06;4968751;28;20115;-90
2022/10/15 07:10:21;;;;;;;10.93;2.97;;;;;;;10.24;100.00;98623.13;4971841;28;20062;-91
2022/10/15 07:12:48;;;;;;;20.27;3.83;;;;;;;10.19;100.00;98640.91;4972549;28;20051;-92
2022/10/15 07:15:18;;;;;;;21.52;3.72;;;;;;;10.16;100.00;98607.13;4971185;28;20097;-92
2022/10/15 07:17:49;;;;;;;19.58;3.72;;;;;;;10.43;100.00;98638.41;4969401;28;20055;-90
2022/10/15 07:20:17;;;;;;;21.95;4.35;;;;;;;10.69;100.00;98628.69;4972150;28;20054;-90
2022/10/15 07:22:50;;;;;;;29.58;4.25;;;;;;;10.55;100.00;98613.13;4958378;28;20055;-90
2022/10/15 07:25:16;;;;;;;15.50;3.40;;;;;;;10.56;100.00;98599.94;4969861;28;20401;-88
2022/10/15 07:27:43;;;;;;;15.00;3.38;;;;;;;10.59;100.00;98597.13;4965793;28;20047;-88
2022/10/15 07:30:12;;;;;;;19.15;3.15;;;;;;;10.42;100.00;98608.78;4970651;28;20046;-89
2022/10/15 07:32:39;;;;;;;22.45;3.40;;;;;;;10.11;100.00;98563.00;4974717;28;20050;-87
2022/10/15 07:35:08;;;;;;;18.63;3.17;;;;;;;10.34;100.00;98577.09;4974922;28;20501;-88
2022/10/15 07:37:35;;;;;;;21.90;2.83;;;;;;;10.16;100.00;98550.41;4965088;28;20445;-88
2022/10/15 07:40:02;;;;;;;13.75;3.42;;;;;;;10.10;100.00;98568.34;4961751;28;20062;-88
2022/10/15 07:42:29;;;;;;;15.75;2.30;;;;;;;10.27;100.00;98592.34;4979541;28;20047;-87
2022/10/15 07:44:56;;;;;;;13.65;3.45;;;;;;;10.07;100.00;98575.47;4968020;28;20134;-86
2022/10/15 07:47:22;;;;;;;11.48;2.40;;;;;;;10.11;100.00;98557.78;4970338;28;20054;-86
2022/10/15 07:49:49;;;;;;;20.10;3.15;;;;;;;10.24;100.00;98532.41;4971273;28;20061;-86
2022/10/15 07:52:16;;;;;;;16.35;2.45;;;;;;;10.41;100.00;98546.94;4974283;28;20485;-86
2022/10/15 07:54:43;;;;;;;14.07;2.60;;;;;;;10.55;100.00;98555.56;4973696;28;20106;-86
2022/10/15 07:57:10;;;;;;;20.75;3.00;;;;;;;10.50;100.00;98515.81;4973468;28;20051;-86
2022/10/15 07:59:36;;;;;;;17.92;2.85;;;;;;;10.69;100.00;98505.66;4973690;28;20050;-86
2022/10/15 08:02:03;;;;;;;19.73;4.72;;;;;;;10.68;100.00;98498.78;4975246;28;20053;-87
2022/10/15 08:04:30;;;;;;;16.77;3.22;;;;;;;10.94;100.00;98502.09;4975307;28;20417;-86
2022/10/15 08:06:56;;;;;;;21.90;3.30;;;;;;;10.64;100.00;98481.63;4975206;28;20058;-86
2022/10/15 08:09:23;;;;;;;18.02;3.03;;;;;;;10.62;100.00;98478.28;4958894;28;20359;-86
2022/10/15 08:11:50;;;;;;;15.52;4.85;;;;;;;10.68;100.00;98467.38;4975402;28;20050;-88
2022/10/15 08:14:17;;;;;;;17.27;4.28;;;;;;;10.69;100.00;98465.59;4978532;28;20053;-88
2022/10/15 08:16:44;;;;;;;19.13;5.15;;;;;;;10.71;100.00;98466.31;4974230;28;20473;-88
2022/10/15 08:19:11;;;;;;;16.70;5.07;;;;;;;10.67;100.00;98450.00;4974885;28;20059;-87
2022/10/15 08:21:37;;;;;;;20.88;5.07;;;;;;;10.72;100.00;98460.13;4974150;28;20469;-87
2022/10/15 08:24:08;;;;;;;18.92;6.18;;;;;;;10.70;100.00;98451.56;4980257;28;20430;-87
2022/10/15 08:26:34;;;;;;;21.25;6.25;;;;;;;10.84;100.00;98482.78;4973641;28;20046;-87
2022/10/15 08:29:01;;;;;;;13.35;5.00;;;;;;;10.70;100.00;98465.47;4967179;28;20106;-86
2022/10/15 08:31:28;;;;;;;15.90;4.90;;;;;;;10.64;100.00;98437.13;4974870;28;20046;-87
2022/10/15 08:33:55;;;;;;;11.13;3.22;;;;;;;10.66;100.00;98435.25;4971294;28;20121;-86
2022/10/15 08:36:22;;;;;;;12.77;3.50;;;;;;;10.58;100.00;98429.75;4970603;28;20075;-88
2022/10/15 08:38:49;;;;;;;16.02;3.88;;;;;;;10.77;100.00;98423.97;4974344;28;20066;-87
2022/10/15 08:41:23;;;;;;;13.48;3.30;;;;;;;10.39;100.00;98415.44;4971723;28;20054;-87
2022/10/15 08:43:53;;;;;;;15.48;4.35;;;;;;;10.43;100.00;98395.94;4971887;28;20573;-86
2022/10/15 08:46:34;;;;;;;12.50;3.40;;;;;;;10.52;100.00;98449.38;4974019;28;20473;-87
2022/10/15 08:49:01;;;;;;;9.32;2.88;;;;;;;10.47;100.00;98451.47;4967050;28;20042;-86
2022/10/15 08:51:43;;;;;;;13.68;2.97;;;;;;;10.36;100.00;98451.44;4974283;28;20058;-86
2022/10/15 08:54:16;;;;;;;11.15;2.70;;;;;;;10.40;100.00;98458.94;4973766;28;20062;-86
2022/10/15 08:56:48;;;;;;;9.50;2.80;;;;;;;10.13;100.00;98424.28;4981560;28;20047;-86
2022/10/15 08:59:23;;;;;;;11.65;2.55;;;;;;;10.32;100.00;98424.66;4974088;28;20043;-91
2022/10/15 09:02:07;;;;;;;8.55;2.03;;;;;;;10.38;100.00;98457.41;4973008;28;20059;-88
2022/10/15 09:05:20;;;;;;;9.68;2.00;;;;;;;10.29;100.00;98448.41;4969671;28;20054;-90
2022/10/15 09:08:09;;;;;;;9.32;2.40;;;;;;;10.60;100.00;98444.38;4977128;28;20113;-89
2022/10/15 09:10:43;;;;;;;7.88;2.08;;;;;;;10.13;100.00;98455.66;4972532;28;20490;-87
2022/10/15 09:13:14;;;;;;;7.78;2.20;;;;;;;10.13;100.00;98430.38;4960916;28;20105;-88
2022/10/15 09:15:56;;;;;;;19.50;3.43;;;;;;;10.20;100.00;98420.31;4971460;28;20126;-87
2022/10/15 09:18:26;;;;;;;7.85;2.20;;;;;;;10.43;100.00;98445.63;4969586;28;20285;-87
2022/10/15 09:20:53;;;;;;;8.85;2.78;;;;;;;10.37;100.00;98433.00;4966190;28;20055;-87
2022/10/15 09:23:24;;;;;;;9.85;2.03;;;;;;;10.38;100.00;98426.00;4949247;28;20055;-86
2022/10/15 09:26:13;;;;;;;9.65;2.45;;;;;;;10.24;100.00;98387.75;4958697;28;20051;-87
2022/10/15 09:29:00;;;;;;;8.07;2.15;;;;;;;10.38;100.00;98408.53;4962330;28;20094;-86
2022/10/15 09:31:33;;;;;;;9.40;1.77;;;;;;;10.13;100.00;98366.75;4971130;28;20131;-87
2022/10/15 09:34:19;;;;;;;10.48;2.95;;;;;;;10.24;100.00;98375.50;4972004;28;20051;-87
2022/10/15 09:36:53;;;;;;;7.32;2.42;;;;;;;10.34;100.00;98378.31;4959087;28;20047;-87
2022/10/15 09:39:57;;;;;;;9.60;2.85;;;;;;;10.43;100.00;98401.16;4960105;28;20050;-87
2022/10/15 09:42:30;;;;;;;10.32;2.80;;;;;;;10.33;100.00;98363.56;4964411;28;20757;-88
2022/10/15 09:45:01;;;;;;;6.65;2.50;;;;;;;10.50;100.00;98392.84;4960331;28;20046;-87
2022/10/15 09:47:33;;;;;;;12.40;1.92;;;;;;;10.06;100.00;98385.53;4972657;28;20058;-87
2022/10/15 09:50:01;;;;;;;8.43;1.90;;;;;;;9.85;100.00;98353.13;4956482;28;20051;-86
2022/10/15 09:52:44;;;;;;;8.70;2.10;;;;;;;9.86;100.00;98391.34;4973167;28;20050;-87
2022/10/15 09:55:29;;;;;;;5.95;1.67;;;;;;;10.20;100.00;98361.00;4969915;28;20433;-88
2022/10/15 09:58:03;;;;;;;5.97;2.10;;;;;;;9.98;100.00;98338.19;4970076;28;20477;-88
2022/10/15 10:01:06;;;;;;;6.65;2.03;;;;;;;10.48;100.00;98374.66;4984987;28;20113;-87
2022/10/15 10:03:35;;;;;;;5.82;1.85;;;;;;;10.35;100.00;98337.28;4900949;29;20431;-88
2022/10/15 10:06:07;;;;;;;9.23;2.22;;;;;;;10.11;100.00;98339.91;4944068;28;20432;-88
2022/10/15 10:08:58;;;;;;;5.03;1.80;;;;;;;10.15;100.00;98310.81;4979131;28;20055;-87
2022/10/15 10:11:26;;;;;;;4.15;1.42;;;;;;;10.17;100.00;98336.84;4973398;28;20062;-88
2022/10/15 10:13:55;;;;;;;11.27;1.67;;;;;;;10.42;100.00;98357.63;4968225;28;20050;-88
2022/10/15 10:16:23;;;;;;;3.55;1.30;;;;;;;10.56;100.00;98359.22;4964938;28;20039;-88
2022/10/15 10:19:10;;;;;;;6.65;2.08;;;;;;;10.43;100.00;98356.69;4966617;28;20050;-88
2022/10/15 10:21:40;;;;;;;5.28;1.20;;;;;;;9.93;100.00;98329.84;4973562;28;20090;-88
2022/10/15 10:24:29;;;;;;;5.72;1.60;;;;;;;10.13;100.00;98349.31;4956034;28;20053;-88
2022/10/15 10:26:57;;;;;;;4.13;1.30;;;;;;;9.89;100.00;98297.06;4956839;28;20486;-88
2022/10/15 10:29:24;;;;;;;2.47;1.20;;;;;;;10.16;100.00;98366.53;4956228;28;20085;-89
2022/10/15 10:32:17;;;;;;;4.60;1.42;;;;;;;10.40;100.00;98348.25;4968896;28;20421;-91
2022/10/15 10:34:45;;;;;;;3.03;1.30;;;;;;;10.02;100.00;98334.44;4969197;28;20058;-92
2022/10/15 10:37:18;;;;;;;3.13;1.30;;;;;;;10.54;100.00;98368.13;4973274;28;20058;-91
2022/10/15 10:39:52;;;;;;;3.10;1.15;;;;;;;10.31;100.00;98339.31;4969893;28;20055;-92
2022/10/15 10:42:18;;;;;;;2.95;1.15;;;;;;;10.48;100.00;98365.97;4973128;28;20080;-92
2022/10/15 10:44:45;;;;;;;2.25;1.02;;;;;;;10.33;100.00;98342.63;4958865;28;20047;-94
2022/10/15 10:47:17;;;;;;;2.15;0.98;;;;;;;10.41;100.00;98390.00;4974501;28;20050;-90
2022/10/15 10:49:54;;;;;;;4.13;1.17;;;;;;;10.60;100.00;98375.50;4972563;28;20620;-86
2022/10/15 10:52:35;;;;;;;3.88;1.38;;;;;;;10.87;100.00;98377.00;4971250;28;20552;-84
2022/10/15 10:55:15;;;;;;;3.15;1.30;;;;;;;11.23;100.00;98377.75;4965708;28;20429;-87
2022/10/15 10:57:48;;;;;;;2.75;1.10;;;;;;;11.33;100.00;98386.53;4950572;28;20057;-87
2022/10/15 11:00:23;;;;;;;2.47;1.10;;;;;;;10.96;100.00;98382.38;4971577;28;20065;-92
2022/10/15 11:02:51;;;;;;;3.00;1.10;;;;;;;11.36;100.00;98365.34;4960226;28;20051;-92
2022/10/15 11:05:25;;;;;;;3.72;1.50;;;;;;;11.14;100.00;98356.53;4976322;28;20051;-92
2022/10/15 11:08:20;;;;;;;2.20;1.10;;;;;;;11.40;100.00;98358.88;4976014;28;20043;-92
2022/10/15 11:11:19;;;;;;;2.85;0.90;;;;;;;11.85;100.00;98394.69;4976785;28;20066;-94
2022/10/15 11:14:24;;;;;;;2.65;1.08;;;;;;;12.10;100.00;98398.81;4978052;28;20055;-92
2022/10/15 11:17:09;;;;;;;3.40;1.25;;;;;;;11.84;100.00;98414.81;4961571;28;20100;-92
2022/10/15 11:20:02;;;;;;;4.85;0.90;;;;;;;11.94;100.00;98401.84;4969154;28;20101;-93
2022/10/15 11:23:11;;;;;;;2.28;1.00;;;;;;;11.90;100.00;98427.47;4975118;28;20141;-91
2022/10/15 11:26:01;;;;;;;4.25;1.20;;;;;;;11.27;100.00;98371.31;4975880;28;20859;-92
2022/10/15 11:28:47;;;;;;;3.25;1.20;;;;;;;11.42;100.00;98384.97;4981444;28;20050;-91
2022/10/15 11:31:29;;;;;;;2.53;1.20;;;;;;;11.99;100.00;98425.06;4974727;28;20610;-91
2022/10/15 11:34:54;;;;;;;4.57;1.38;;;;;;;12.03;100.00;98434.38;4960837;28;20054;-91
2022/10/15 11:37:37;;;;;;;1.85;1.00;;;;;;;11.67;100.00;98396.97;4948097;28;20054;-90
2022/10/15 11:40:33;;;;;;;2.53;1.00;;;;;;;11.83;100.00;98425.41;4971250;28;20047;-90
2022/10/15 11:43:08;;;;;;;2.03;1.00;;;;;;;11.51;100.00;98407.81;4970215;28;20113;-91
2022/10/15 11:46:07;;;;;;;5.30;1.65;;;;;;;11.80;100.00;98449.28;4970104;28;20051;-91
2022/10/15 11:49:01;;;;;;;2.40;1.10;;;;;;;11.56;100.00;98393.44;4983120;28;20639;-91